Fukushima Airport Sukagawa JP
ICAO: RJSF
IATA:
Category: Medium
Scheduled Services:

Elevation: 1221 ft
TransAlt. 14000 ft.

Airport Communications:
RDO:118.05

RJSF Zoom In..

If you have problems with the map follow the link
https://www.worldairports.se/pages/airport.php?
ICAO=RJSF

Runways:

(A) RW 01 length 8202 ft width 197 ft
ILS 110.50 / hdg 10

(B) RW 19 length 8202 ft width 197 ft
---- / hdg 190

Location; RJSF
Day. 18 / Time. 05.00 Zulu
* QNH: 1011
* Temperature: 23° c. 73.4°f.
* Wind from: 180° Speed 07 kn.
Dewpoint: 14° c.
Visibility: 10 km or more.
Clouds: Few 4000 ft.
Clouds: Scattered 5000 ft.
Clouds: Broken 9000 ft.

RJSF 180500Z 18007KT 150V220 9999 FEW040 SCT050 BKN090 23/14 Q1011


Wind From 180°
Speed 07 kn.

 
 
jpsmedia.com for Web Design worldairports.se 2019   terms of use